Time;durP1;ratioP1;P1;durP2;ratioP2;P2;SDS_P1;SDS_P2;PMS_P1;PMS_P2;Temp;Humidity;BMP_temperature;BMP_pressure;BME280_temperature;BME280_humidity;BME280_pressure;Samples;Min_cycle;Max_cycle;Signal;HPM_P1;HPM_P2
2023/08/20 00:00:25;;;;;;;5.60;5.10;;;22.40;99.90;;;;;;5056074;28;20205;-84
2023/08/20 00:02:59;;;;;;;6.15;5.57;;;22.40;99.90;;;;;;5038061;28;20223;-85
2023/08/20 00:05:25;;;;;;;5.35;4.95;;;22.40;99.90;;;;;;5056323;28;20580;-84
2023/08/20 00:07:50;;;;;;;7.18;5.47;;;22.40;99.90;;;;;;5056108;28;20169;-84
2023/08/20 00:10:16;;;;;;;7.93;5.15;;;22.30;99.90;;;;;;5055636;28;20194;-84
2023/08/20 00:12:42;;;;;;;6.03;5.00;;;22.20;99.90;;;;;;5056382;28;20178;-83
2023/08/20 00:15:08;;;;;;;7.82;4.90;;;22.10;99.90;;;;;;5056031;28;20209;-85
2023/08/20 00:17:39;;;;;;;5.82;5.22;;;22.10;99.90;;;;;;5056231;28;20174;-85
2023/08/20 00:20:16;;;;;;;6.03;5.40;;;22.30;99.90;;;;;;5037939;28;20190;-84
2023/08/20 00:22:43;;;;;;;7.78;5.20;;;22.40;99.90;;;;;;5037980;28;20177;-86
2023/08/20 00:25:09;;;;;;;6.20;5.60;;;22.40;99.90;;;;;;5056173;28;20200;-84
2023/08/20 00:27:35;;;;;;;8.35;5.60;;;22.30;99.90;;;;;;5037838;28;20177;-84
2023/08/20 00:30:00;;;;;;;6.00;5.40;;;22.30;99.90;;;;;;5055287;28;20186;-84
2023/08/20 00:32:26;;;;;;;8.88;4.95;;;22.30;99.90;;;;;;5055867;28;20181;-84
2023/08/20 00:34:52;;;;;;;5.32;4.90;;;22.30;99.90;;;;;;5037823;28;20618;-84
2023/08/20 00:37:17;;;;;;;5.72;5.00;;;22.30;99.90;;;;;;5037835;28;20265;-84
2023/08/20 00:39:43;;;;;;;5.75;5.22;;;22.20;99.90;;;;;;5054938;28;20774;-84
2023/08/20 00:42:09;;;;;;;7.47;5.65;;;22.20;99.90;;;;;;5055656;28;20177;-84
2023/08/20 00:44:34;;;;;;;5.50;4.97;;;22.20;99.90;;;;;;5054920;28;20174;-85
2023/08/20 00:47:04;;;;;;;1182.40;85.35;;;22.20;99.90;;;;;;5055981;28;20567;-84
2023/08/20 00:49:31;;;;;;;6.40;5.00;;;22.20;99.90;;;;;;5055365;28;20177;-83
2023/08/20 00:51:58;;;;;;;6.25;5.43;;;22.10;99.90;;;;;;5037130;28;20170;-84
2023/08/20 00:54:24;;;;;;;7.32;5.47;;;22.10;99.90;;;;;;5037464;28;20198;-84
2023/08/20 00:56:50;;;;;;;77.72;8.18;;;22.00;99.90;;;;;;5055655;28;20169;-84
2023/08/20 00:59:17;;;;;;;6.75;5.20;;;22.00;99.90;;;;;;5055150;28;20170;-84
2023/08/20 01:01:43;;;;;;;5.95;5.07;;;21.80;99.90;;;;;;5054609;28;20672;-84
2023/08/20 01:04:09;;;;;;;5.95;5.28;;;21.80;99.90;;;;;;5054874;28;20235;-84
2023/08/20 01:06:37;;;;;;;7.47;4.95;;;21.80;99.90;;;;;;5055211;28;20567;-84
2023/08/20 01:09:23;;;;;;;7.00;5.53;;;21.80;99.90;;;;;;5054967;28;20174;-84
2023/08/20 01:11:55;;;;;;;8.45;5.85;;;21.70;99.90;;;;;;5054535;28;20185;-84
2023/08/20 01:14:21;;;;;;;5.97;5.35;;;21.70;99.90;;;;;;5054994;28;20197;-84
2023/08/20 01:16:48;;;;;;;6.97;5.60;;;21.80;99.90;;;;;;5037035;28;20173;-84
2023/08/20 01:19:18;;;;;;;5.85;5.32;;;21.80;99.90;;;;;;5036907;28;20177;-84
2023/08/20 01:22:11;;;;;;;6.10;5.50;;;21.90;99.90;;;;;;5037054;28;20190;-83
2023/08/20 01:24:52;;;;;;;5.85;5.35;;;21.80;99.90;;;;;;5055028;28;20169;-84
2023/08/20 01:27:41;;;;;;;8.02;5.47;;;21.80;99.90;;;;;;5037243;28;20177;-84
2023/08/20 01:30:08;;;;;;;6.53;5.00;;;21.70;99.90;;;;;;5036155;28;20285;-84
2023/08/20 01:32:34;;;;;;;5.25;4.25;;;21.60;99.90;;;;;;5054564;28;20316;-84
2023/08/20 01:35:00;;;;;;;4.32;3.90;;;21.60;99.90;;;;;;5036597;28;20193;-84
2023/08/20 01:37:26;;;;;;;3.60;3.30;;;21.50;99.90;;;;;;5054604;28;20249;-83
2023/08/20 01:39:51;;;;;;;5.72;4.20;;;21.40;99.90;;;;;;5054272;28;20186;-84
2023/08/20 01:42:18;;;;;;;6.20;4.75;;;21.40;99.90;;;;;;5036637;28;20170;-83
2023/08/20 01:44:43;;;;;;;5.32;4.68;;;21.50;99.90;;;;;;5036901;28;20173;-83
2023/08/20 01:47:09;;;;;;;6.65;5.00;;;21.50;99.90;;;;;;5036748;28;20166;-84
2023/08/20 01:49:34;;;;;;;7.82;5.63;;;21.40;99.90;;;;;;5036619;28;20722;-84
2023/08/20 01:52:00;;;;;;;7.00;5.25;;;21.40;99.90;;;;;;5039220;28;20185;-83
2023/08/20 01:54:26;;;;;;;7.07;5.03;;;21.30;99.90;;;;;;5029246;28;20226;-84
2023/08/20 01:56:51;;;;;;;6.00;5.18;;;21.40;99.90;;;;;;5036335;28;20162;-84
2023/08/20 01:59:18;;;;;;;7.18;5.57;;;21.40;99.90;;;;;;5054443;28;20169;-83
2023/08/20 02:01:44;;;;;;;6.07;5.15;;;21.40;99.90;;;;;;5053553;28;20591;-84
2023/08/20 02:04:09;;;;;;;6.93;5.68;;;21.40;99.90;;;;;;5036074;28;20186;-84
2023/08/20 02:06:35;;;;;;;7.00;5.13;;;21.50;99.90;;;;;;5054209;28;20166;-84
2023/08/20 02:09:00;;;;;;;6.30;5.38;;;21.50;99.90;;;;;;5054176;28;20527;-84
2023/08/20 02:11:26;;;;;;;7.97;6.50;;;21.50;99.90;;;;;;5035388;28;20196;-86
2023/08/20 02:13:52;;;;;;;6.45;5.85;;;21.50;99.90;;;;;;5036150;28;20169;-84
2023/08/20 02:16:17;;;;;;;7.45;6.03;;;21.50;99.90;;;;;;5053783;28;20193;-84
2023/08/20 02:18:43;;;;;;;7.03;6.13;;;21.50;99.90;;;;;;5035715;28;20170;-84
2023/08/20 02:21:08;;;;;;;6.35;5.75;;;21.50;99.90;;;;;;5052282;28;20545;-83
2023/08/20 02:23:34;;;;;;;6.45;5.95;;;21.40;99.90;;;;;;5036013;28;20191;-84
2023/08/20 02:26:00;;;;;;;6.70;6.10;;;21.30;99.90;;;;;;5036223;28;20228;-84
2023/08/20 02:28:26;;;;;;;6.43;5.82;;;21.20;99.90;;;;;;5035916;28;20249;-84
2023/08/20 02:30:52;;;;;;;7.97;6.22;;;21.10;99.90;;;;;;5053281;28;20189;-84
2023/08/20 02:33:17;;;;;;;7.05;6.00;;;21.00;99.90;;;;;;5053676;28;20235;-84
2023/08/20 02:35:43;;;;;;;6.28;5.55;;;21.00;99.90;;;;;;5035657;28;20236;-84
2023/08/20 02:38:09;;;;;;;6.03;5.43;;;21.00;99.90;;;;;;5035595;28;20174;-84
2023/08/20 02:40:41;;;;;;;7.53;5.90;;;21.00;99.90;;;;;;5053040;28;20271;-84
2023/08/20 02:43:06;;;;;;;6.18;5.57;;;21.00;99.90;;;;;;5035757;28;20170;-84
2023/08/20 02:45:32;;;;;;;10.98;6.40;;;21.00;99.90;;;;;;5053649;28;20185;-84
2023/08/20 02:47:57;;;;;;;9.35;6.22;;;21.00;99.90;;;;;;5035418;28;20576;-85
2023/08/20 02:50:23;;;;;;;7.45;6.63;;;20.90;99.90;;;;;;5052701;28;20189;-83
2023/08/20 02:52:49;;;;;;;6.82;6.13;;;21.00;99.90;;;;;;5035498;28;20176;-84
2023/08/20 02:55:14;;;;;;;6.65;5.40;;;21.10;99.90;;;;;;5035454;28;20201;-84
2023/08/20 02:57:40;;;;;;;7.25;5.40;;;21.10;99.90;;;;;;5035343;28;20166;-84
2023/08/20 03:00:10;;;;;;;6.50;5.22;;;21.00;99.90;;;;;;5052547;28;20205;-84
2023/08/20 03:02:35;;;;;;;7.00;6.13;;;20.90;99.90;;;;;;5053423;28;20170;-84
2023/08/20 03:05:01;;;;;;;8.57;6.30;;;20.90;99.90;;;;;;5034908;28;20184;-84
2023/08/20 03:07:27;;;;;;;5.97;5.47;;;20.80;99.90;;;;;;5035008;28;20173;-84
2023/08/20 03:09:52;;;;;;;6.93;5.78;;;20.90;99.90;;;;;;5034427;28;20197;-85
2023/08/20 03:12:18;;;;;;;6.43;5.80;;;21.00;99.90;;;;;;5053057;28;20180;-83
2023/08/20 03:14:43;;;;;;;6.70;5.57;;;21.00;99.90;;;;;;5035002;28;20284;-84
2023/08/20 03:17:09;;;;;;;6.35;5.75;;;20.90;99.90;;;;;;5035171;28;20166;-84
2023/08/20 03:19:37;;;;;;;5.95;5.35;;;20.80;99.90;;;;;;5035184;28;20675;-83
2023/08/20 03:22:02;;;;;;;7.38;6.10;;;20.80;99.90;;;;;;5035119;28;20189;-84
2023/08/20 03:24:28;;;;;;;8.10;5.60;;;20.80;99.90;;;;;;5035210;28;20668;-84
2023/08/20 03:26:54;;;;;;;7.18;6.00;;;20.80;99.90;;;;;;5035234;28;20652;-84
2023/08/20 03:29:19;;;;;;;9.50;6.38;;;20.90;99.90;;;;;;5052846;28;20169;-84
2023/08/20 03:31:45;;;;;;;6.78;6.07;;;20.90;99.90;;;;;;5052259;28;20190;-84
2023/08/20 03:34:10;;;;;;;6.13;5.55;;;21.00;99.90;;;;;;5034651;28;20177;-84
2023/08/20 03:36:36;;;;;;;7.32;5.43;;;20.90;99.90;;;;;;5052898;28;20173;-84
2023/08/20 03:39:03;;;;;;;8.90;5.00;;;20.90;99.90;;;;;;5052954;28;20216;-84
2023/08/20 03:41:29;;;;;;;6.15;4.85;;;20.70;99.90;;;;;;5034485;28;20201;-84
2023/08/20 03:43:54;;;;;;;6.40;5.80;;;20.80;99.90;;;;;;5052952;28;20200;-84
2023/08/20 03:46:20;;;;;;;5.53;4.93;;;20.80;99.90;;;;;;5052336;28;20209;-86
2023/08/20 03:48:45;;;;;;;6.28;5.00;;;20.80;99.90;;;;;;5052669;28;20170;-84
2023/08/20 03:51:11;;;;;;;10.18;5.95;;;20.80;99.90;;;;;;5051952;28;20224;-83
2023/08/20 03:53:36;;;;;;;6.60;5.68;;;20.80;99.90;;;;;;5052821;28;20185;-84
2023/08/20 03:56:02;;;;;;;7.30;5.70;;;20.90;99.90;;;;;;5051436;28;20209;-83
2023/08/20 03:58:27;;;;;;;8.18;5.55;;;20.90;99.90;;;;;;5034841;28;20166;-83
2023/08/20 04:00:53;;;;;;;6.85;5.72;;;20.80;99.90;;;;;;5051192;28;20270;-83
2023/08/20 04:03:19;;;;;;;10.43;5.32;;;20.70;99.90;;;;;;5072269;28;20180;-84
2023/08/20 04:05:45;;;;;;;6.20;5.60;;;20.60;99.90;;;;;;5071163;28;20173;-84
2023/08/20 04:08:11;;;;;;;6.45;5.57;;;20.60;99.90;;;;;;5071559;28;20178;-85
2023/08/20 04:10:43;;;;;;;8.05;5.55;;;20.60;99.90;;;;;;5072146;28;20661;-84
2023/08/20 04:13:09;;;;;;;6.25;5.55;;;20.50;99.90;;;;;;5071494;28;20177;-84
2023/08/20 04:15:35;;;;;;;5.88;5.28;;;20.50;99.90;;;;;;5072683;28;20567;-84
2023/08/20 04:18:00;;;;;;;5.85;5.35;;;20.50;99.90;;;;;;5071025;28;20176;-84
2023/08/20 04:20:26;;;;;;;6.03;5.43;;;20.50;99.90;;;;;;5071602;28;20295;-84
2023/08/20 04:22:52;;;;;;;5.63;5.13;;;20.50;99.90;;;;;;5076384;28;20173;-84
2023/08/20 04:25:17;;;;;;;6.13;5.53;;;20.60;99.90;;;;;;5076250;28;20180;-85
2023/08/20 04:27:43;;;;;;;7.20;5.57;;;20.60;99.90;;;;;;5074756;28;20173;-84
2023/08/20 04:30:09;;;;;;;7.43;5.00;;;20.60;99.90;;;;;;5075266;28;20282;-84
2023/08/20 04:32:35;;;;;;;6.35;5.63;;;20.60;99.90;;;;;;5076166;28;20651;-84
2023/08/20 04:35:00;;;;;;;5.90;5.30;;;20.60;99.90;;;;;;5074614;28;20207;-83
2023/08/20 04:37:26;;;;;;;6.57;5.40;;;20.60;99.90;;;;;;5074326;28;20184;-84
2023/08/20 04:39:51;;;;;;;6.35;5.75;;;20.60;99.90;;;;;;5075526;28;20191;-83
2023/08/20 04:42:17;;;;;;;7.10;5.53;;;20.50;99.90;;;;;;5074499;28;20567;-84
2023/08/20 04:44:42;;;;;;;5.95;5.45;;;20.40;99.90;;;;;;5075778;28;20192;-84
2023/08/20 04:47:15;;;;;;;7.22;5.65;;;20.40;99.90;;;;;;5074257;28;20176;-85
2023/08/20 04:49:40;;;;;;;6.25;5.57;;;20.40;99.90;;;;;;5075193;28;20172;-84
2023/08/20 04:52:06;;;;;;;6.18;5.57;;;20.30;99.90;;;;;;5075309;28;20543;-83
2023/08/20 04:54:32;;;;;;;7.53;6.22;;;20.30;99.90;;;;;;5054481;28;20189;-83
2023/08/20 04:56:57;;;;;;;6.30;5.72;;;20.30;99.90;;;;;;5055300;28;20173;-84
2023/08/20 04:59:23;;;;;;;5.65;4.50;;;20.20;99.90;;;;;;5055079;28;20177;-84
2023/08/20 05:01:49;;;;;;;5.47;4.97;;;20.20;99.90;;;;;;5120595;22;20224;-85
2023/08/20 05:04:14;;;;;;;5.88;5.38;;;20.00;99.90;;;;;;5069930;28;20181;-85
2023/08/20 05:06:40;;;;;;;6.85;5.97;;;20.00;99.90;;;;;;5080220;28;20192;-85
2023/08/20 05:09:05;;;;;;;5.97;5.47;;;20.00;99.90;;;;;;5078558;28;20232;-86
2023/08/20 05:11:32;;;;;;;7.45;6.63;;;20.00;99.90;;;;;;5073529;28;20218;-88
2023/08/20 05:13:58;;;;;;;7.38;5.90;;;20.10;99.90;;;;;;5073105;28;20169;-86
2023/08/20 05:16:24;;;;;;;5.93;5.30;;;20.60;99.90;;;;;;5056496;28;20204;-86
2023/08/20 05:18:49;;;;;;;5.20;4.70;;;21.40;99.90;;;;;;5066936;28;20169;-87
2023/08/20 05:21:15;;;;;;;4.63;4.22;;;22.00;99.90;;;;;;5073616;28;20197;-86
2023/08/20 05:23:40;;;;;;;5.93;4.20;;;22.50;99.90;;;;;;5064303;28;20195;-86
2023/08/20 05:26:07;;;;;;;4.30;4.00;;;22.90;99.90;;;;;;5063525;28;20256;-87
2023/08/20 05:28:33;;;;;;;5.03;4.53;;;23.30;23.50;;;;;;5076794;28;20233;-85
2023/08/20 05:30:59;;;;;;;37.72;27.85;;;23.20;58.20;;;;;;5074624;28;20678;-85
2023/08/20 05:33:25;;;;;;;17.92;11.90;;;23.30;99.90;;;;;;5074402;28;20346;-85
2023/08/20 05:35:51;;;;;;;11.43;9.07;;;23.40;99.20;;;;;;5071931;28;20664;-86
2023/08/20 05:38:17;;;;;;;7.00;6.30;;;23.50;34.10;;;;;;5066225;28;20230;-85
2023/08/20 05:40:42;;;;;;;6.13;5.53;;;23.70;1.00;;;;;;5079529;28;20262;-85
2023/08/20 05:43:08;;;;;;;7.70;5.65;;;23.50;99.90;;;;;;5082134;28;20177;-83
2023/08/20 05:45:34;;;;;;;7.20;5.38;;;23.30;99.90;;;;;;5082681;28;20228;-83
2023/08/20 05:48:00;;;;;;;6.25;5.47;;;23.30;99.90;;;;;;5080160;28;20185;-84
2023/08/20 05:50:25;;;;;;;6.00;5.43;;;23.20;99.90;;;;;;5078704;28;20251;-85
2023/08/20 05:52:52;;;;;;;7.53;5.45;;;23.40;99.90;;;;;;5079249;28;20173;-88
2023/08/20 05:55:18;;;;;;;5.68;5.07;;;23.50;99.90;;;;;;5072365;28;20189;-84
2023/08/20 05:57:43;;;;;;;6.75;5.30;;;23.30;99.90;;;;;;5070763;28;20179;-85
2023/08/20 06:00:10;;;;;;;5.82;4.95;;;23.50;99.90;;;;;;5074705;28;20165;-86
2023/08/20 06:02:36;;;;;;;6.50;5.90;;;23.50;99.90;;;;;;5079805;28;20200;-84
2023/08/20 06:05:04;;;;;;;6.13;5.40;;;23.50;99.90;;;;;;5076318;28;20173;-84
2023/08/20 06:07:30;;;;;;;6.40;5.75;;;23.20;99.90;;;;;;5077435;28;20177;-82
2023/08/20 06:09:56;;;;;;;5.25;4.85;;;23.00;99.90;;;;;;5080418;28;20724;-83
2023/08/20 06:12:22;;;;;;;5.97;5.38;;;22.70;99.90;;;;;;5080602;28;20192;-83
2023/08/20 06:14:48;;;;;;;9.25;6.07;;;22.90;99.90;;;;;;5061424;28;20194;-84
2023/08/20 06:17:13;;;;;;;6.30;5.57;;;22.90;99.90;;;;;;5061321;28;20170;-81
2023/08/20 06:19:39;;;;;;;7.50;5.65;;;23.10;99.90;;;;;;5078346;28;20169;-83
2023/08/20 06:22:04;;;;;;;6.53;5.10;;;23.40;99.90;;;;;;5064941;28;20252;-83
2023/08/20 06:24:30;;;;;;;7.47;5.47;;;23.60;99.90;;;;;;5059634;28;20181;-84
2023/08/20 06:26:56;;;;;;;6.10;5.50;;;23.70;99.90;;;;;;5057835;28;20174;-81
2023/08/20 06:29:24;;;;;;;8.52;6.72;;;23.70;99.90;;;;;;5060004;28;20174;-83
2023/08/20 06:31:50;;;;;;;8.10;6.30;;;23.70;99.90;;;;;;5060218;28;20189;-82
2023/08/20 06:34:16;;;;;;;9.02;6.35;;;23.70;99.90;;;;;;5043805;28;20185;-84
2023/08/20 06:36:41;;;;;;;7.47;6.78;;;23.80;99.90;;;;;;5041745;28;20174;-83
2023/08/20 06:39:07;;;;;;;6.85;5.78;;;23.70;99.90;;;;;;5042035;28;20170;-83
2023/08/20 06:41:33;;;;;;;10.05;6.75;;;23.60;99.90;;;;;;5056309;28;20190;-82
2023/08/20 06:43:59;;;;;;;6.85;6.25;;;23.60;99.90;;;;;;5040824;28;20261;-82
2023/08/20 06:46:25;;;;;;;8.70;7.75;;;23.60;99.90;;;;;;5040705;28;20221;-82
2023/08/20 06:48:50;;;;;;;8.27;7.32;;;23.60;99.90;;;;;;5040705;28;20177;-83
2023/08/20 06:51:20;;;;;;;6.88;6.10;;;23.40;99.90;;;;;;5039411;28;20224;-82
2023/08/20 06:53:46;;;;;;;8.40;7.63;;;23.30;99.90;;;;;;5061365;28;20172;-83
2023/08/20 06:56:12;;;;;;;8.70;7.80;;;23.40;99.90;;;;;;5076748;28;20232;-82
2023/08/20 06:58:39;;;;;;;8.80;7.90;;;23.10;99.90;;;;;;5081344;28;20192;-84
2023/08/20 07:01:08;;;;;;;10.23;8.23;;;23.10;99.90;;;;;;5079277;28;20356;-82
2023/08/20 07:03:39;;;;;;;9.23;8.10;;;23.10;99.90;;;;;;5077012;28;20166;-84
2023/08/20 07:06:04;;;;;;;8.50;7.50;;;23.20;99.90;;;;;;5073520;28;20624;-82
2023/08/20 07:08:30;;;;;;;8.70;7.88;;;23.20;99.90;;;;;;5081311;28;20188;-84
2023/08/20 07:10:56;;;;;;;8.15;7.00;;;23.40;99.90;;;;;;5062575;28;20215;-82
2023/08/20 07:13:22;;;;;;;9.35;8.45;;;23.40;99.90;;;;;;5059887;28;20177;-81
2023/08/20 07:15:48;;;;;;;9.68;8.68;;;23.40;99.90;;;;;;5061685;28;20220;-84
2023/08/20 07:18:14;;;;;;;9.43;8.43;;;23.40;99.90;;;;;;5060150;28;20173;-82
2023/08/20 07:20:43;;;;;;;7.72;6.82;;;23.40;99.90;;;;;;5058702;28;20212;-82
2023/08/20 07:23:09;;;;;;;9.27;8.38;;;23.50;99.90;;;;;;5059157;28;20174;-82
2023/08/20 07:25:39;;;;;;;9.88;8.52;;;23.70;99.90;;;;;;5060096;28;20189;-83
2023/08/20 07:28:05;;;;;;;9.20;8.27;;;23.70;99.90;;;;;;5059249;28;20173;-82
2023/08/20 07:30:31;;;;;;;10.40;8.48;;;23.90;99.90;;;;;;5059073;28;20280;-84
2023/08/20 07:32:57;;;;;;;9.18;8.27;;;23.70;99.90;;;;;;5061070;28;20169;-82
2023/08/20 07:35:23;;;;;;;9.43;8.40;;;23.80;99.90;;;;;;5058424;28;20189;-82
2023/08/20 07:37:48;;;;;;;9.55;8.27;;;23.80;99.90;;;;;;5059087;28;20181;-82
2023/08/20 07:40:14;;;;;;;9.43;8.43;;;23.90;99.90;;;;;;5058644;28;20205;-82
2023/08/20 07:42:43;;;;;;;9.15;8.25;;;23.90;99.90;;;;;;5058989;28;20165;-83
2023/08/20 07:45:09;;;;;;;10.02;8.55;;;24.00;99.90;;;;;;5061229;28;20170;-82
2023/08/20 07:47:38;;;;;;;9.98;8.38;;;23.90;99.90;;;;;;5059141;28;20174;-82
2023/08/20 07:50:04;;;;;;;8.75;7.95;;;23.90;99.90;;;;;;5057462;28;20640;-81
2023/08/20 07:52:30;;;;;;;9.98;8.98;;;23.90;99.90;;;;;;5058061;28;20185;-83
2023/08/20 07:54:56;;;;;;;9.85;8.88;;;24.00;99.90;;;;;;5062795;28;20217;-82
2023/08/20 07:57:23;;;;;;;10.38;9.27;;;24.10;99.90;;;;;;5065280;28;20204;-82
2023/08/20 07:59:49;;;;;;;10.32;9.25;;;24.10;99.90;;;;;;5062073;28;20198;-82
2023/08/20 08:02:14;;;;;;;10.07;9.07;;;24.10;99.90;;;;;;5062529;28;20209;-83
2023/08/20 08:04:40;;;;;;;11.90;10.77;;;24.10;99.90;;;;;;5065510;28;20257;-84
2023/08/20 08:07:06;;;;;;;11.40;10.32;;;24.20;99.90;;;;;;5065053;28;20170;-81
2023/08/20 08:09:32;;;;;;;11.27;10.10;;;24.30;99.90;;;;;;5059312;28;20175;-81
2023/08/20 08:11:58;;;;;;;10.07;9.00;;;24.50;99.90;;;;;;5066137;28;20213;-81
2023/08/20 08:14:24;;;;;;;11.73;10.63;;;24.50;99.90;;;;;;5063311;28;20199;-81
2023/08/20 08:16:50;;;;;;;10.75;9.65;;;24.60;99.90;;;;;;5065215;28;20173;-82
2023/08/20 08:19:16;;;;;;;10.60;9.50;;;24.80;99.90;;;;;;5063931;28;20265;-80
2023/08/20 08:21:43;;;;;;;10.82;9.73;;;24.80;99.90;;;;;;5063791;28;20196;-82
2023/08/20 08:24:09;;;;;;;10.75;8.77;;;24.90;99.90;;;;;;5062873;28;20170;-81
2023/08/20 08:26:35;;;;;;;10.55;9.27;;;25.00;99.90;;;;;;5064277;28;20173;-83
2023/08/20 08:29:02;;;;;;;10.32;9.02;;;25.20;99.90;;;;;;5064691;28;20177;-81
2023/08/20 08:31:28;;;;;;;10.00;8.93;;;25.30;99.90;;;;;;5063510;28;20194;-81
2023/08/20 08:33:53;;;;;;;9.65;8.75;;;25.40;60.50;;;;;;5058106;28;20184;-84
2023/08/20 08:36:19;;;;;;;9.77;8.88;;;25.50;26.80;;;;;;5060980;28;20207;-82
2023/08/20 08:38:45;;;;;;;9.70;8.75;;;25.50;1.00;;;;;;5061546;28;20204;-83
2023/08/20 08:41:12;;;;;;;8.93;7.70;;;25.60;1.00;;;;;;5058820;28;20199;-83
2023/08/20 08:43:38;;;;;;;9.57;8.68;;;25.70;1.00;;;;;;5056535;28;20208;-83
2023/08/20 08:46:07;;;;;;;9.32;8.40;;;25.70;1.00;;;;;;5060258;28;20174;-86
2023/08/20 08:48:35;;;;;;;8.88;8.07;;;26.00;1.00;;;;;;5057008;28;20223;-84
2023/08/20 08:51:01;;;;;;;9.38;8.38;;;26.20;1.00;;;;;;5058889;28;20691;-84
2023/08/20 08:53:27;;;;;;;8.57;7.78;;;26.30;1.00;;;;;;5063300;28;20207;-85
2023/08/20 08:55:52;;;;;;;9.02;8.13;;;26.30;1.00;;;;;;5070093;28;20211;-84
2023/08/20 08:58:18;;;;;;;8.45;7.72;;;26.30;1.00;;;;;;5065886;28;20256;-83
2023/08/20 09:00:43;;;;;;;9.68;8.50;;;26.40;1.00;;;;;;5066866;28;20201;-83
2023/08/20 09:03:09;;;;;;;8.90;7.75;;;26.40;99.90;;;;;;5075282;28;20218;-84
2023/08/20 09:05:48;;;;;;;9.35;8.45;;;26.50;1.00;;;;;;5075133;28;20926;-84
2023/08/20 09:08:26;;;;;;;10.25;8.07;;;26.60;99.90;;;;;;5076829;28;20171;-83
2023/08/20 09:10:54;;;;;;;9.20;8.30;;;26.80;1.00;;;;;;5074269;28;20193;-82
2023/08/20 09:13:23;;;;;;;9.68;8.25;;;26.90;1.00;;;;;;5073996;28;20177;-83
2023/08/20 09:15:52;;;;;;;9.63;7.82;;;27.00;1.00;;;;;;5075636;28;20691;-84
2023/08/20 09:18:17;;;;;;;9.10;7.90;;;27.20;1.00;;;;;;5076222;28;20177;-84
2023/08/20 09:20:43;;;;;;;8.40;7.35;;;27.00;4.40;;;;;;5073860;28;20200;-83
2023/08/20 09:23:15;;;;;;;10.27;7.68;;;27.10;20.80;;;;;;5076397;28;20174;-83
2023/08/20 09:25:42;;;;;;;7.95;7.20;;;27.20;1.00;;;;;;5074694;28;20644;-84
2023/08/20 09:28:08;;;;;;;8.15;7.15;;;27.30;1.00;;;;;;5075360;28;20231;-83
2023/08/20 09:30:34;;;;;;;7.65;6.95;;;27.50;1.00;;;;;;5074836;28;20629;-83
2023/08/20 09:33:14;;;;;;;8.85;7.15;;;27.50;1.00;;;;;;5074308;28;20608;-83
2023/08/20 09:35:49;;;;;;;7.88;7.20;;;27.80;1.00;;;;;;5076077;28;20197;-83
2023/08/20 09:38:14;;;;;;;8.15;7.32;;;28.00;2.90;;;;;;5074467;28;20266;-83
2023/08/20 09:40:40;;;;;;;7.80;6.90;;;28.20;99.90;;;;;;5074034;28;20189;-85
2023/08/20 09:43:08;;;;;;;8.10;7.20;;;28.20;1.00;;;;;;5075706;28;20181;-83
2023/08/20 09:45:36;;;;;;;8.30;7.50;;;28.40;99.90;;;;;;5075044;28;20230;-82
2023/08/20 09:48:05;;;;;;;8.90;7.82;;;28.50;1.00;;;;;;5073906;28;20208;-86
2023/08/20 09:50:36;;;;;;;8.35;7.55;;;28.50;1.00;;;;;;5071707;28;20618;-86
2023/08/20 09:53:31;;;;;;;7.68;6.97;;;28.50;99.90;;;;;;5072737;28;20176;-85
2023/08/20 09:56:34;;;;;;;7.80;7.03;;;28.70;47.90;;;;;;5064893;28;20212;-86
2023/08/20 09:59:01;;;;;;;8.75;7.90;;;28.80;1.00;;;;;;5041692;28;20639;-85
2023/08/20 10:01:27;;;;;;;8.20;7.50;;;28.90;1.00;;;;;;5077041;28;20274;-83
2023/08/20 10:03:53;;;;;;;8.93;7.70;;;28.80;1.00;;;;;;5076630;28;20177;-84
2023/08/20 10:06:20;;;;;;;9.30;7.20;;;28.90;1.00;;;;;;5067822;28;20173;-83
2023/08/20 10:08:46;;;;;;;8.38;7.57;;;28.80;1.70;;;;;;5079083;28;20183;-83
2023/08/20 10:11:12;;;;;;;8.20;7.50;;;28.80;99.90;;;;;;5079001;28;20276;-83
2023/08/20 10:13:38;;;;;;;8.40;7.50;;;28.90;1.00;;;;;;5080368;28;20180;-85
2023/08/20 10:16:04;;;;;;;8.25;7.55;;;28.80;1.00;;;;;;5078536;28;20193;-84
2023/08/20 10:18:30;;;;;;;8.57;7.15;;;28.80;99.90;;;;;;5077922;28;20258;-83
2023/08/20 10:20:59;;;;;;;8.35;7.55;;;28.80;1.00;;;;;;5077556;28;20238;-83
2023/08/20 10:23:24;;;;;;;18.13;13.30;;;29.00;1.00;;;;;;5080569;28;20238;-80
2023/08/20 10:25:52;;;;;;;17.85;11.43;;;29.10;99.90;;;;;;5078360;28;20523;-85
2023/08/20 10:28:26;;;;;;;9.45;8.02;;;29.20;1.00;;;;;;5078642;28;20173;-84
2023/08/20 10:31:12;;;;;;;7.47;6.72;;;29.30;1.00;;;;;;5073708;28;20192;-82
2023/08/20 10:33:46;;;;;;;7.88;7.18;;;29.40;1.00;;;;;;5075731;28;20196;-83
2023/08/20 10:36:27;;;;;;;8.40;7.15;;;29.40;99.90;;;;;;5075828;28;20196;-83
2023/08/20 10:38:56;;;;;;;7.47;6.68;;;29.40;1.00;;;;;;5075560;28;20161;-83
2023/08/20 10:41:28;;;;;;;7.38;6.65;;;29.40;1.00;;;;;;5074546;28;20289;-83
2023/08/20 10:43:58;;;;;;;8.13;6.93;;;29.40;99.90;;;;;;5074507;28;20256;-82
2023/08/20 10:46:25;;;;;;;7.65;6.95;;;29.50;99.90;;;;;;5073730;28;20169;-83
2023/08/20 10:48:54;;;;;;;7.63;6.93;;;29.50;99.90;;;;;;5073705;28;20235;-82
2023/08/20 10:51:36;;;;;;;7.63;7.03;;;29.40;99.90;;;;;;5074183;28;20193;-82
2023/08/20 10:54:06;;;;;;;7.65;6.95;;;29.40;1.00;;;;;;5073265;28;20183;-84
2023/08/20 10:56:41;;;;;;;8.00;7.20;;;29.70;1.00;;;;;;5075070;28;20204;-84
2023/08/20 10:59:09;;;;;;;7.93;7.15;;;29.90;1.00;;;;;;5073832;28;20168;-83
2023/08/20 11:01:34;;;;;;;9.18;7.32;;;30.00;99.90;;;;;;5087892;22;20229;-85
2023/08/20 11:04:04;;;;;;;7.20;6.60;;;30.00;1.00;;;;;;5031206;28;20181;-84
2023/08/20 11:06:34;;;;;;;8.18;7.20;;;30.00;1.00;;;;;;5031329;28;20226;-85
2023/08/20 11:09:00;;;;;;;7.20;6.57;;;30.20;99.90;;;;;;5049288;28;20169;-85
2023/08/20 11:11:26;;;;;;;7.00;6.40;;;30.30;12.70;;;;;;5048641;28;20605;-84
2023/08/20 11:13:51;;;;;;;7.57;6.80;;;30.40;18.70;;;;;;5049337;28;20173;-85
2023/08/20 11:16:19;;;;;;;7.20;6.50;;;30.50;1.00;;;;;;5025626;27;20663;-85
2023/08/20 11:18:44;;;;;;;6.88;6.15;;;30.60;99.90;;;;;;5066719;27;20648;-85
2023/08/20 11:21:11;;;;;;;7.40;6.70;;;30.60;1.00;;;;;;5073538;28;20201;-85
2023/08/20 11:23:39;;;;;;;7.07;6.38;;;30.70;99.90;;;;;;5031216;28;20197;-85
2023/08/20 11:26:05;;;;;;;6.97;6.38;;;30.70;99.90;;;;;;5049023;28;20165;-85
2023/08/20 11:28:30;;;;;;;7.22;6.53;;;30.80;99.90;;;;;;5093300;27;20185;-84
2023/08/20 11:30:57;;;;;;;7.38;6.68;;;30.70;1.00;;;;;;5138776;27;20186;-85
2023/08/20 11:33:23;;;;;;;6.50;6.00;;;30.90;99.90;;;;;;5139208;27;20645;-85
2023/08/20 11:35:49;;;;;;;7.35;6.65;;;31.20;99.90;;;;;;5157778;27;20664;-85
2023/08/20 11:38:15;;;;;;;7.82;6.45;;;31.20;1.00;;;;;;5139402;27;20170;-84
2023/08/20 11:40:41;;;;;;;6.60;6.00;;;31.20;1.00;;;;;;5138803;27;20169;-86
2023/08/20 11:43:07;;;;;;;6.65;5.90;;;31.40;1.00;;;;;;5157785;27;20262;-85
2023/08/20 11:45:33;;;;;;;6.93;6.32;;;31.70;1.00;;;;;;5157676;27;20527;-84
2023/08/20 11:47:59;;;;;;;6.40;5.80;;;31.90;1.00;;;;;;5139077;27;20238;-85
2023/08/20 11:50:25;;;;;;;6.80;6.10;;;31.80;1.00;;;;;;5156818;27;20178;-85
2023/08/20 11:52:55;;;;;;;6.85;6.13;;;31.70;1.00;;;;;;5089394;27;20250;-85
2023/08/20 11:55:24;;;;;;;6.85;6.15;;;31.70;14.90;;;;;;5085857;27;20288;-84
2023/08/20 11:57:53;;;;;;;6.30;5.80;;;31.70;1.00;;;;;;5157404;27;20162;-84
2023/08/20 12:00:31;;;;;;;6.20;5.65;;;31.70;13.90;;;;;;5138637;27;20169;-84
2023/08/20 12:02:57;;;;;;;6.85;5.57;;;31.90;1.00;;;;;;5138708;27;20186;-84
2023/08/20 12:05:29;;;;;;;6.22;5.68;;;32.30;1.00;;;;;;5157591;27;20170;-85
2023/08/20 12:08:04;;;;;;;5.82;5.22;;;32.60;99.90;;;;;;5157295;27;20178;-84
2023/08/20 12:10:31;;;;;;;6.32;5.55;;;32.70;1.00;;;;;;5156972;27;20173;-85
2023/08/20 12:12:58;;;;;;;6.53;5.80;;;32.40;99.90;;;;;;5138691;27;20633;-84
2023/08/20 12:15:24;;;;;;;6.03;5.38;;;32.40;15.50;;;;;;5138497;27;20198;-84
2023/08/20 12:18:05;;;;;;;7.25;5.30;;;32.60;99.90;;;;;;5157259;27;20169;-84
2023/08/20 12:20:32;;;;;;;5.25;4.75;;;32.80;21.30;;;;;;5156746;27;20590;-85
2023/08/20 12:23:00;;;;;;;6.07;5.55;;;33.10;1.00;;;;;;5157332;27;20531;-84
2023/08/20 12:25:26;;;;;;;5.45;4.95;;;33.10;1.00;;;;;;5157197;27;20170;-84
2023/08/20 12:27:52;;;;;;;5.60;5.10;;;33.20;1.00;;;;;;5156955;27;20170;-84
2023/08/20 12:30:17;;;;;;;5.75;5.25;;;33.20;99.90;;;;;;5156826;27;20201;-84
2023/08/20 12:32:43;;;;;;;5.65;5.10;;;33.30;1.00;;;;;;5156873;27;20198;-84
2023/08/20 12:35:09;;;;;;;5.03;4.63;;;33.60;1.00;;;;;;5138299;27;20197;-84
2023/08/20 12:37:35;;;;;;;6.50;5.05;;;33.80;99.90;;;;;;5156807;27;20514;-85
2023/08/20 12:40:00;;;;;;;5.43;4.93;;;33.90;99.90;;;;;;5137293;27;20178;-85
2023/08/20 12:42:26;;;;;;;6.30;5.18;;;34.00;99.90;;;;;;5155577;27;20190;-85
2023/08/20 12:44:52;;;;;;;5.57;5.07;;;34.20;99.90;;;;;;5137982;27;20175;-85
2023/08/20 12:47:17;;;;;;;7.38;5.10;;;34.30;99.90;;;;;;5138067;27;20198;-85